createdAt,value
2023-01-28T00:00:22.497Z,8.60
2023-01-28T00:05:26.090Z,8.60
2023-01-28T00:10:29.521Z,8.60
2023-01-28T00:15:34.863Z,8.60
2023-01-28T00:20:38.285Z,8.60
2023-01-28T00:25:41.585Z,8.60
2023-01-28T00:30:46.354Z,8.60
2023-01-28T00:35:49.802Z,8.60
2023-01-28T00:40:53.290Z,8.60
2023-01-28T00:45:58.130Z,8.50
2023-01-28T00:51:04.365Z,8.50
2023-01-28T00:56:09.677Z,8.50
2023-01-28T01:01:16.724Z,8.50
2023-01-28T01:06:20.290Z,8.50
2023-01-28T01:11:23.900Z,8.50
2023-01-28T01:16:32.382Z,8.50
2023-01-28T01:21:37.237Z,8.50
2023-01-28T01:26:40.905Z,8.50
2023-01-28T01:31:45.981Z,8.40
2023-01-28T01:36:49.602Z,8.40
2023-01-28T01:41:55.626Z,8.30
2023-01-28T01:47:01.590Z,8.30
2023-01-28T01:52:10.335Z,8.30
2023-01-28T01:57:18.196Z,8.30
2023-01-28T02:02:23.573Z,8.30
2023-01-28T02:07:27.325Z,8.30
2023-01-28T02:12:37.865Z,8.30
2023-01-28T02:17:43.557Z,8.30
2023-01-28T02:23:22.636Z,8.30
2023-01-28T02:28:33.927Z,8.30
2023-01-28T02:33:42.263Z,8.30
2023-01-28T02:38:50.194Z,8.30
2023-01-28T02:43:55.128Z,8.30
2023-01-28T02:48:58.851Z,8.30
2023-01-28T02:54:10.847Z,8.30
2023-01-28T02:59:34.257Z,8.30
2023-01-28T03:04:47.676Z,8.30
2023-01-28T03:09:53.436Z,8.30
2023-01-28T03:15:17.986Z,8.30
2023-01-28T03:20:40.644Z,8.40
2023-01-28T03:26:06.473Z,8.40
2023-01-28T03:31:31.925Z,8.40
2023-01-28T03:36:49.566Z,8.40
2023-01-28T03:42:15.593Z,8.40
2023-01-28T03:47:46.262Z,8.40
2023-01-28T03:52:49.796Z,8.40
2023-01-28T03:58:05.856Z,8.30
2023-01-28T04:03:16.433Z,8.30
2023-01-28T04:08:29.716Z,8.30
2023-01-28T04:13:53.578Z,8.30
2023-01-28T04:19:00.395Z,8.30
2023-01-28T04:24:04.230Z,8.20
2023-01-28T04:29:07.982Z,8.20
2023-01-28T04:34:14.609Z,8.20
2023-01-28T04:39:39.362Z,8.20
2023-01-28T04:45:12.991Z,8.20
2023-01-28T04:50:35.732Z,8.30
2023-01-28T04:56:11.326Z,8.30
2023-01-28T05:01:15.160Z,8.30
2023-01-28T05:06:20.073Z,8.30
2023-01-28T05:11:23.995Z,8.20
2023-01-28T05:16:34.409Z,8.30
2023-01-28T05:21:40.511Z,8.20
2023-01-28T05:26:57.963Z,8.20
2023-01-28T05:32:01.780Z,8.20
2023-01-28T05:37:07.791Z,8.10
2023-01-28T05:42:15.426Z,8.00
2023-01-28T05:47:23.253Z,8.00
2023-01-28T05:52:28.125Z,8.00
2023-01-28T05:57:31.742Z,8.00
2023-01-28T06:02:35.427Z,8.00
2023-01-28T06:07:41.751Z,8.00
2023-01-28T06:12:47.723Z,7.90
2023-01-28T06:18:09.592Z,7.90
2023-01-28T06:23:14.931Z,8.00
2023-01-28T06:28:18.764Z,8.00
2023-01-28T06:33:22.753Z,8.00
2023-01-28T06:38:27.806Z,8.10
2023-01-28T06:43:31.210Z,8.20
2023-01-28T06:48:34.647Z,8.20
2023-01-28T06:53:39.627Z,8.30
2023-01-28T06:58:43.456Z,8.30
2023-01-28T07:03:47.363Z,8.30
2023-01-28T07:08:52.127Z,8.30
2023-01-28T07:13:55.621Z,8.40
2023-01-28T07:18:59.173Z,8.40
2023-01-28T07:24:05.363Z,8.40
2023-01-28T07:29:09.911Z,8.50
2023-01-28T07:34:13.579Z,8.50
2023-01-28T07:39:18.303Z,8.50
2023-01-28T07:44:22.117Z,8.50
2023-01-28T07:49:25.455Z,8.60
2023-01-28T07:54:30.589Z,8.60
2023-01-28T07:59:33.966Z,8.60
2023-01-28T08:04:38.370Z,8.70
2023-01-28T08:09:43.184Z,8.70
2023-01-28T08:14:46.606Z,8.70
2023-01-28T08:19:50.125Z,8.70
2023-01-28T08:24:55.358Z,8.70
2023-01-28T08:29:58.761Z,8.80
2023-01-28T08:35:02.341Z,8.80
2023-01-28T08:40:08.678Z,8.80
2023-01-28T08:45:13.066Z,8.90
2023-01-28T08:50:17.266Z,9.00
2023-01-28T08:55:22.401Z,9.00
2023-01-28T09:00:26.129Z,9.10
2023-01-28T09:05:30.140Z,9.10
2023-01-28T09:10:35.322Z,9.20
2023-01-28T09:15:39.053Z,9.30
2023-01-28T09:20:42.789Z,9.30
2023-01-28T09:25:47.704Z,9.40
2023-01-28T09:30:51.457Z,9.40
2023-01-28T09:35:54.944Z,9.30
2023-01-28T09:41:00.256Z,9.40
2023-01-28T09:46:06.426Z,9.40
2023-01-28T09:51:12.992Z,9.40
2023-01-28T09:56:27.024Z,9.40
2023-01-28T10:01:41.297Z,9.40
2023-01-28T10:06:56.634Z,9.40
2023-01-28T10:12:14.843Z,9.40
2023-01-28T10:17:23.379Z,9.40
2023-01-28T10:22:32.203Z,9.50
2023-01-28T10:27:39.176Z,9.40
2023-01-28T10:32:48.344Z,9.40
2023-01-28T10:37:54.426Z,9.50
2023-01-28T10:42:59.131Z,9.60
2023-01-28T10:48:08.292Z,9.60
2023-01-28T10:53:11.657Z,9.60
2023-01-28T10:58:21.706Z,9.60
2023-01-28T11:03:27.410Z,9.60
2023-01-28T11:08:43.598Z,9.70
2023-01-28T11:13:54.955Z,9.60
2023-01-28T11:19:02.173Z,9.60
2023-01-28T11:24:14.901Z,9.60
2023-01-28T11:29:29.201Z,9.60
2023-01-28T11:34:36.280Z,9.60
2023-01-28T11:39:39.777Z,9.60
2023-01-28T11:44:44.531Z,9.60
2023-01-28T11:50:08.375Z,9.50
2023-01-28T11:55:24.342Z,9.50
2023-01-28T12:00:40.283Z,9.60
2023-01-28T12:05:50.569Z,9.60
2023-01-28T12:11:10.573Z,9.60
2023-01-28T12:16:35.796Z,9.60
2023-01-28T12:21:54.936Z,9.60
2023-01-28T12:27:08.451Z,9.60
2023-01-28T12:32:31.765Z,9.50
2023-01-28T12:37:46.703Z,9.50
2023-01-28T12:42:54.533Z,9.50
2023-01-28T12:48:02.711Z,9.50
2023-01-28T12:53:21.080Z,9.50
2023-01-28T12:58:34.582Z,9.40
2023-01-28T13:03:44.935Z,9.40
2023-01-28T13:08:50.551Z,9.40
2023-01-28T13:13:54.531Z,9.40
2023-01-28T13:19:09.730Z,9.30
2023-01-28T13:24:31.803Z,9.30
2023-01-28T13:29:35.971Z,9.40
2023-01-28T13:34:44.336Z,9.40
2023-01-28T13:39:51.493Z,9.40
2023-01-28T13:44:55.443Z,9.40
2023-01-28T13:50:04.180Z,9.40
2023-01-28T13:55:30.380Z,9.50
2023-01-28T14:00:56.279Z,9.50
2023-01-28T14:06:33.203Z,9.50
2023-01-28T14:12:10.029Z,9.60
2023-01-28T14:17:21.720Z,9.60
2023-01-28T14:22:27.238Z,9.60
2023-01-28T14:27:36.951Z,9.60
2023-01-28T14:32:47.677Z,9.60
2023-01-28T14:37:53.470Z,9.60
2023-01-28T14:42:58.952Z,9.60
2023-01-28T14:48:21.252Z,9.60
2023-01-28T14:53:53.577Z,9.60
2023-01-28T14:59:02.102Z,9.70
2023-01-28T15:04:05.983Z,9.70
2023-01-28T15:09:15.083Z,9.70
2023-01-28T15:14:27.401Z,9.60
2023-01-28T15:19:34.796Z,9.60
2023-01-28T15:24:44.322Z,9.60
2023-01-28T15:29:56.878Z,9.60
2023-01-28T15:35:02.300Z,9.60
2023-01-28T15:40:09.600Z,9.60
2023-01-28T15:45:18.752Z,9.70
2023-01-28T15:50:24.639Z,9.70
2023-01-28T15:55:39.427Z,9.60
2023-01-28T16:00:43.148Z,9.60
2023-01-28T16:05:58.622Z,9.60
2023-01-28T16:11:08.942Z,9.60
2023-01-28T16:16:18.925Z,9.60
2023-01-28T16:21:25.422Z,9.60
2023-01-28T16:26:33.337Z,9.70
2023-01-28T16:31:39.626Z,9.70
2023-01-28T16:36:45.314Z,9.70
2023-01-28T16:41:57.298Z,9.70
2023-01-28T16:47:04.379Z,9.70
2023-01-28T16:52:08.585Z,9.70
2023-01-28T16:57:15.805Z,9.80
2023-01-28T17:02:19.177Z,9.70
2023-01-28T17:07:22.553Z,9.70
2023-01-28T17:12:27.649Z,9.70
2023-01-28T17:17:31.943Z,9.80
2023-01-28T17:22:36.812Z,9.70
2023-01-28T17:27:42.196Z,9.70
2023-01-28T17:32:46.535Z,9.70
2023-01-28T17:37:56.440Z,9.70
2023-01-28T17:43:02.341Z,9.70
2023-01-28T17:48:07.775Z,9.70
2023-01-28T17:53:13.002Z,9.70
2023-01-28T17:58:19.286Z,9.70
2023-01-28T18:03:26.778Z,9.70
2023-01-28T18:08:31.463Z,9.70
2023-01-28T18:13:40.223Z,9.70
2023-01-28T18:18:44.691Z,9.70
2023-01-28T18:23:48.647Z,9.70
2023-01-28T18:28:59.034Z,9.70
2023-01-28T18:34:06.360Z,9.70
2023-01-28T18:39:13.805Z,9.70
2023-01-28T18:44:18.868Z,9.70
2023-01-28T18:49:23.192Z,9.70
2023-01-28T18:54:28.744Z,9.70
2023-01-28T18:59:38.273Z,9.70
2023-01-28T19:04:43.096Z,9.70
2023-01-28T19:09:47.734Z,9.70
2023-01-28T19:15:08.955Z,9.80
2023-01-28T19:20:15.019Z,9.70
2023-01-28T19:25:24.203Z,9.80
2023-01-28T19:30:31.411Z,9.70
2023-01-28T19:35:37.255Z,9.70
2023-01-28T19:40:42.766Z,9.70
2023-01-28T19:45:58.156Z,9.70
2023-01-28T19:51:09.053Z,9.70
2023-01-28T19:56:15.917Z,9.70
2023-01-28T20:01:23.997Z,9.70
2023-01-28T20:06:30.888Z,9.70
2023-01-28T20:11:35.955Z,9.70
2023-01-28T20:16:40.943Z,9.70
2023-01-28T20:21:46.763Z,9.80
2023-01-28T20:26:51.267Z,9.70
2023-01-28T20:32:13.686Z,9.70
2023-01-28T20:37:20.190Z,9.80
2023-01-28T20:42:24.814Z,9.70
2023-01-28T20:47:31.536Z,9.80
2023-01-28T20:52:41.563Z,9.80
2023-01-28T20:57:48.116Z,9.80
2023-01-28T21:02:54.693Z,9.80
2023-01-28T21:07:59.419Z,9.90
2023-01-28T21:13:03.041Z,9.90
2023-01-28T21:18:08.787Z,9.90
2023-01-28T21:23:15.143Z,9.90
2023-01-28T21:28:20.841Z,9.90
2023-01-28T21:33:26.025Z,9.90
2023-01-28T21:38:30.065Z,9.90
2023-01-28T21:43:33.995Z,9.90
2023-01-28T21:48:38.883Z,9.90
2023-01-28T21:53:43.724Z,9.90
2023-01-28T21:59:04.683Z,9.90
2023-01-28T22:04:09.604Z,9.80
2023-01-28T22:09:14.163Z,9.80
2023-01-28T22:14:18.031Z,9.80
2023-01-28T22:19:22.928Z,9.80
2023-01-28T22:24:26.635Z,9.80
2023-01-28T22:29:30.025Z,9.70
2023-01-28T22:34:34.725Z,9.70
2023-01-28T22:39:38.008Z,9.70
2023-01-28T22:44:41.332Z,9.60
2023-01-28T22:49:46.082Z,9.70
2023-01-28T22:54:51.649Z,9.70
2023-01-28T23:00:00.345Z,9.70
2023-01-28T23:05:05.736Z,9.70
2023-01-28T23:10:10.781Z,9.70
2023-01-28T23:15:31.853Z,9.70
2023-01-28T23:20:56.864Z,9.60
2023-01-28T23:26:00.396Z,9.60
2023-01-28T23:31:04.007Z,9.60
2023-01-28T23:36:09.600Z,9.60
2023-01-28T23:41:12.996Z,9.60
2023-01-28T23:46:16.956Z,9.60
2023-01-28T23:51:22.972Z,9.60
2023-01-28T23:56:26.233Z,9.60
